createdAt,value
2019-05-02T00:02:28.911Z,46.55
2019-05-02T00:04:57.118Z,44.20
2019-05-02T00:07:24.676Z,39.48
2019-05-02T00:09:52.440Z,42.93
2019-05-02T00:12:20.001Z,40.60
2019-05-02T00:14:47.640Z,39.13
2019-05-02T00:17:15.507Z,44.47
2019-05-02T00:19:45.145Z,38.88
2019-05-02T00:22:17.024Z,43.02
2019-05-02T00:24:41.669Z,37.78
2019-05-02T00:27:09.113Z,37.27
2019-05-02T00:29:36.667Z,42.27
2019-05-02T00:32:04.228Z,40.35
2019-05-02T00:34:31.649Z,38.88
2019-05-02T00:36:59.164Z,42.23
2019-05-02T00:39:26.619Z,42.87
2019-05-02T00:41:54.046Z,45.93
2019-05-02T00:44:21.542Z,42.03
2019-05-02T00:46:48.984Z,43.07
2019-05-02T00:49:16.442Z,47.08
2019-05-02T00:51:43.860Z,45.00
2019-05-02T00:54:12.252Z,49.93
2019-05-02T00:56:40.138Z,39.13
2019-05-02T00:59:08.987Z,41.80
2019-05-02T01:01:48.968Z,44.17
2019-05-02T01:04:36.654Z,45.27
2019-05-02T01:07:04.419Z,51.33
2019-05-02T01:09:32.773Z,43.23
2019-05-02T01:12:03.099Z,49.97
2019-05-02T01:14:31.834Z,40.90
2019-05-02T01:16:58.819Z,46.47
2019-05-02T01:19:26.362Z,46.23
2019-05-02T01:21:53.783Z,44.27
2019-05-02T01:24:21.214Z,48.30
2019-05-02T01:27:06.461Z,45.13
2019-05-02T01:29:40.812Z,43.70
2019-05-02T01:32:15.354Z,47.10
2019-05-02T01:35:05.059Z,43.40
2019-05-02T01:37:54.850Z,45.27
2019-05-02T01:40:21.460Z,51.20
2019-05-02T01:42:50.768Z,53.87
2019-05-02T01:45:18.169Z,50.17
2019-05-02T01:47:45.607Z,50.87
2019-05-02T01:50:13.478Z,46.70
2019-05-02T01:52:40.938Z,51.03
2019-05-02T01:55:08.591Z,48.63
2019-05-02T01:57:40.010Z,50.13
2019-05-02T02:00:09.327Z,50.85
2019-05-02T02:02:35.031Z,51.60
2019-05-02T02:05:02.601Z,50.17
2019-05-02T02:07:30.041Z,51.13
2019-05-02T02:09:57.463Z,50.90
2019-05-02T02:12:25.007Z,50.93
2019-05-02T02:14:53.638Z,53.10
2019-05-02T02:17:21.739Z,53.27
2019-05-02T02:19:53.900Z,52.57
2019-05-02T02:22:41.166Z,51.50
2019-05-02T02:25:32.178Z,50.87
2019-05-02T02:28:01.031Z,49.77
2019-05-02T02:30:29.053Z,54.47
2019-05-02T02:33:00.486Z,51.30
2019-05-02T02:35:25.929Z,49.63
2019-05-02T02:37:55.755Z,52.47
2019-05-02T02:40:32.840Z,57.07
2019-05-02T02:42:51.865Z,45.53
2019-05-02T02:45:43.748Z,53.27
2019-05-02T02:48:33.573Z,61.00
2019-05-02T02:51:00.491Z,57.80
2019-05-02T02:53:30.493Z,58.57
2019-05-02T02:56:03.874Z,57.70
2019-05-02T02:58:31.105Z,54.00
2019-05-02T03:00:58.615Z,53.80
2019-05-02T03:03:28.150Z,52.23
2019-05-02T03:05:58.586Z,51.43
2019-05-02T03:08:25.555Z,52.50
2019-05-02T03:10:53.418Z,49.40
2019-05-02T03:13:52.361Z,50.80
2019-05-02T03:16:20.538Z,50.47
2019-05-02T03:18:48.184Z,51.73
2019-05-02T03:21:20.337Z,50.43
2019-05-02T03:23:45.126Z,49.10
2019-05-02T03:26:14.751Z,49.70
2019-05-02T03:28:41.960Z,57.07
2019-05-02T03:31:23.875Z,53.53
2019-05-02T03:33:54.872Z,49.73
2019-05-02T03:36:25.938Z,53.70
2019-05-02T03:38:38.176Z,45.70
2019-05-02T03:41:05.630Z,50.13
2019-05-02T03:43:33.165Z,45.47
2019-05-02T03:46:00.714Z,41.33
2019-05-02T03:48:28.142Z,45.47
2019-05-02T03:50:55.630Z,38.50
2019-05-02T03:53:25.444Z,41.37
2019-05-02T03:55:52.678Z,43.87
2019-05-02T03:58:20.746Z,40.53
2019-05-02T04:00:48.216Z,45.37
2019-05-02T04:03:17.542Z,48.07
2019-05-02T04:05:45.591Z,45.80
2019-05-02T04:08:19.709Z,41.47
2019-05-02T04:11:17.476Z,39.17
2019-05-02T04:13:44.883Z,37.93
2019-05-02T04:16:15.277Z,46.93
2019-05-02T04:18:42.095Z,48.37
2019-05-02T04:21:09.643Z,43.67
2019-05-02T04:23:37.826Z,43.00
2019-05-02T04:26:06.857Z,46.23
2019-05-02T04:28:34.593Z,47.87
2019-05-02T04:31:02.047Z,46.50
2019-05-02T04:33:34.619Z,45.70
2019-05-02T04:35:59.749Z,43.70
2019-05-02T04:38:39.002Z,44.57
2019-05-02T04:40:59.151Z,41.00
2019-05-02T04:43:28.726Z,47.73
2019-05-02T04:45:59.679Z,42.87
2019-05-02T04:48:25.233Z,30.83
2019-05-02T04:51:02.027Z,37.60
2019-05-02T04:53:25.887Z,35.53
2019-05-02T04:56:01.566Z,37.13
2019-05-02T04:58:27.587Z,31.90
2019-05-02T05:00:54.084Z,36.67
2019-05-02T05:03:21.169Z,34.37
2019-05-02T05:05:48.456Z,38.13
2019-05-02T05:08:19.628Z,30.90
2019-05-02T05:10:45.170Z,33.77
2019-05-02T05:13:19.714Z,32.98
2019-05-02T05:15:48.754Z,33.40
2019-05-02T05:18:14.392Z,37.07
2019-05-02T05:20:40.594Z,37.60
2019-05-02T05:23:08.307Z,36.60
2019-05-02T05:25:41.252Z,36.60
2019-05-02T05:28:09.073Z,38.67
2019-05-02T05:30:39.601Z,39.35
2019-05-02T05:33:09.937Z,36.45
2019-05-02T05:35:35.198Z,34.98
2019-05-02T05:38:02.707Z,34.30
2019-05-02T05:40:32.013Z,33.50
2019-05-02T05:43:02.113Z,33.55
2019-05-02T05:45:28.831Z,31.80
2019-05-02T05:47:57.540Z,36.80
2019-05-02T05:50:27.477Z,36.63
2019-05-02T05:52:54.812Z,42.95
2019-05-02T05:55:24.315Z,36.08
2019-05-02T05:57:59.548Z,41.25
2019-05-02T06:00:23.249Z,39.90
2019-05-02T06:02:56.057Z,38.35
2019-05-02T06:05:20.268Z,36.53
2019-05-02T06:07:47.734Z,34.20
2019-05-02T06:10:15.190Z,38.58
2019-05-02T06:12:42.702Z,41.42
2019-05-02T06:15:10.489Z,38.80
2019-05-02T06:17:38.780Z,40.43
2019-05-02T06:20:06.722Z,40.28
2019-05-02T06:22:34.455Z,45.58
2019-05-02T06:25:08.819Z,37.65
2019-05-02T06:27:34.881Z,43.15
2019-05-02T06:30:03.410Z,41.92
2019-05-02T06:32:30.873Z,39.50
2019-05-02T06:34:58.319Z,47.53
2019-05-02T06:37:25.814Z,46.00
2019-05-02T06:39:53.258Z,46.15
2019-05-02T06:42:20.734Z,44.10
2019-05-02T06:44:48.237Z,47.35
2019-05-02T06:47:15.691Z,50.12
2019-05-02T06:49:43.438Z,47.45
2019-05-02T06:52:10.894Z,48.58
2019-05-02T06:54:38.344Z,54.03
2019-05-02T06:57:05.836Z,52.53
2019-05-02T06:59:33.328Z,49.58
2019-05-02T07:02:00.896Z,53.60
2019-05-02T07:04:28.386Z,54.67
2019-05-02T07:06:58.991Z,49.93
2019-05-02T07:09:25.183Z,57.65
2019-05-02T07:11:57.384Z,53.52
2019-05-02T07:14:23.379Z,50.60
2019-05-02T07:17:00.370Z,55.03
2019-05-02T07:19:32.356Z,49.10
2019-05-02T07:22:04.056Z,48.33
2019-05-02T07:24:30.676Z,57.88
2019-05-02T07:26:58.323Z,57.48
2019-05-02T07:29:25.771Z,60.12
2019-05-02T07:31:53.577Z,59.93
2019-05-02T07:34:21.148Z,53.28
2019-05-02T07:36:48.612Z,62.78
2019-05-02T07:39:16.342Z,56.55
2019-05-02T07:41:43.792Z,69.75
2019-05-02T07:44:11.272Z,62.48
2019-05-02T07:46:51.240Z,65.95
2019-05-02T07:49:08.002Z,62.62
2019-05-02T07:51:35.525Z,78.37
2019-05-02T07:54:03.014Z,69.82
2019-05-02T07:56:30.483Z,63.73
2019-05-02T07:58:57.927Z,72.60
2019-05-02T08:01:25.438Z,70.22
2019-05-02T08:03:52.960Z,70.92
2019-05-02T08:06:24.263Z,71.77
2019-05-02T08:08:49.713Z,61.55
2019-05-02T08:11:17.178Z,58.23
2019-05-02T08:13:44.652Z,60.92
2019-05-02T08:16:12.119Z,66.05
2019-05-02T08:18:39.570Z,60.80
2019-05-02T08:21:07.098Z,60.83
2019-05-02T08:23:34.545Z,60.65
2019-05-02T08:26:02.060Z,72.42
2019-05-02T08:28:38.760Z,68.85
2019-05-02T08:31:06.472Z,71.28
2019-05-02T08:33:34.805Z,64.97
2019-05-02T08:36:03.395Z,73.65
2019-05-02T08:38:30.879Z,75.32
2019-05-02T08:40:58.332Z,81.42
2019-05-02T08:43:25.774Z,76.10
2019-05-02T08:45:53.292Z,73.55
2019-05-02T08:48:22.698Z,72.42
2019-05-02T08:50:50.015Z,72.12
2019-05-02T08:53:19.873Z,81.50
2019-05-02T08:55:47.951Z,77.30
2019-05-02T08:58:15.982Z,76.82
2019-05-02T09:00:46.887Z,76.47
2019-05-02T09:03:13.231Z,71.70
2019-05-02T09:05:45.349Z,73.07
2019-05-02T09:08:14.441Z,76.12
2019-05-02T09:10:42.218Z,71.70
2019-05-02T09:13:08.493Z,68.57
2019-05-02T09:15:40.449Z,80.75
2019-05-02T09:18:05.195Z,73.87
2019-05-02T09:20:32.687Z,69.95
2019-05-02T09:23:01.758Z,71.10
2019-05-02T09:25:29.406Z,72.60
2019-05-02T09:27:56.907Z,67.20
2019-05-02T09:30:25.887Z,71.97
2019-05-02T09:32:57.004Z,71.72
2019-05-02T09:35:23.122Z,66.20
2019-05-02T09:37:52.267Z,65.17
2019-05-02T09:40:22.023Z,63.00
2019-05-02T09:42:53.425Z,50.52
2019-05-02T09:45:22.811Z,63.17
2019-05-02T09:47:58.247Z,61.73
2019-05-02T09:50:26.637Z,65.42
2019-05-02T09:52:48.994Z,64.03
2019-05-02T09:55:16.888Z,61.55
2019-05-02T09:57:44.444Z,61.30
2019-05-02T10:00:26.707Z,58.33
2019-05-02T10:02:54.905Z,61.68
2019-05-02T10:05:23.063Z,63.87
2019-05-02T10:07:52.446Z,65.80
2019-05-02T10:10:21.831Z,62.03
2019-05-02T10:12:49.454Z,58.13
2019-05-02T10:15:17.545Z,59.65
2019-05-02T10:17:46.891Z,63.13
2019-05-02T10:20:15.290Z,56.05
2019-05-02T10:22:43.818Z,57.10
2019-05-02T10:25:12.510Z,60.03
2019-05-02T10:27:46.009Z,56.75
2019-05-02T10:30:15.271Z,56.92
2019-05-02T10:32:39.778Z,51.30
2019-05-02T10:35:08.784Z,47.55
2019-05-02T10:37:38.340Z,51.85
2019-05-02T10:40:07.921Z,51.13
2019-05-02T10:42:35.580Z,51.15
2019-05-02T10:45:07.426Z,58.48
2019-05-02T10:47:34.814Z,52.88
2019-05-02T10:50:11.692Z,49.63
2019-05-02T10:52:39.178Z,56.35
2019-05-02T10:55:07.355Z,53.78
2019-05-02T10:57:34.849Z,49.80
2019-05-02T11:00:03.286Z,46.15
2019-05-02T11:02:43.387Z,50.73
2019-05-02T11:05:17.054Z,51.05
2019-05-02T11:07:43.434Z,51.30
2019-05-02T11:10:12.253Z,54.23
2019-05-02T11:12:48.115Z,44.20
2019-05-02T11:15:44.206Z,46.33
2019-05-02T11:18:12.640Z,45.40
2019-05-02T11:20:41.920Z,40.98
2019-05-02T11:23:09.659Z,45.33
2019-05-02T11:25:37.241Z,43.78
2019-05-02T11:28:07.045Z,43.13
2019-05-02T11:30:36.127Z,37.00
2019-05-02T11:33:03.694Z,42.10
2019-05-02T11:35:31.851Z,42.90
2019-05-02T11:37:59.528Z,40.65
2019-05-02T11:40:27.275Z,39.92
2019-05-02T11:42:57.257Z,36.35
2019-05-02T11:45:23.958Z,40.10
2019-05-02T11:47:54.458Z,38.58
2019-05-02T11:50:22.115Z,40.83
2019-05-02T11:52:49.626Z,44.30
2019-05-02T11:55:19.122Z,41.20
2019-05-02T11:57:46.577Z,41.73
2019-05-02T12:00:14.124Z,45.85
2019-05-02T12:02:59.363Z,42.58
2019-05-02T12:05:35.654Z,39.67
2019-05-02T12:08:08.018Z,38.83
2019-05-02T12:10:34.829Z,39.75
2019-05-02T12:12:59.803Z,37.15
2019-05-02T12:15:27.983Z,39.70
2019-05-02T12:17:55.824Z,38.23
2019-05-02T12:20:28.630Z,40.75
2019-05-02T12:22:56.204Z,41.13
2019-05-02T12:25:23.676Z,35.80
2019-05-02T12:27:52.691Z,38.92
2019-05-02T12:30:20.263Z,37.35
2019-05-02T12:32:47.725Z,38.83
2019-05-02T12:35:15.246Z,38.75
2019-05-02T12:37:42.747Z,38.15
2019-05-02T12:40:12.184Z,34.10
2019-05-02T12:42:41.737Z,37.28
2019-05-02T12:45:09.639Z,39.27
2019-05-02T12:47:37.107Z,40.12
2019-05-02T12:50:07.074Z,36.03
2019-05-02T12:52:34.580Z,43.02
2019-05-02T12:55:02.339Z,39.92
2019-05-02T12:57:32.005Z,39.18
2019-05-02T12:59:59.403Z,38.35
2019-05-02T13:02:42.186Z,45.58
2019-05-02T13:05:09.749Z,38.45
2019-05-02T13:07:37.227Z,38.17
2019-05-02T13:10:04.876Z,41.65
2019-05-02T13:12:34.635Z,36.03
2019-05-02T13:15:02.344Z,39.75
2019-05-02T13:17:29.948Z,37.80
2019-05-02T13:20:03.111Z,37.65
2019-05-02T13:22:44.373Z,38.00
2019-05-02T13:25:14.062Z,35.45
2019-05-02T13:27:47.488Z,37.58
2019-05-02T13:30:21.939Z,35.40
2019-05-02T13:32:56.122Z,37.73
2019-05-02T13:35:31.626Z,31.20
2019-05-02T13:38:02.774Z,35.35
2019-05-02T13:40:35.337Z,36.17
2019-05-02T13:43:02.944Z,33.53
2019-05-02T13:46:02.389Z,33.48
2019-05-02T13:48:29.855Z,34.65
2019-05-02T13:50:57.508Z,38.05
2019-05-02T13:53:24.988Z,32.63
2019-05-02T13:56:12.993Z,34.20
2019-05-02T13:58:42.342Z,34.92
2019-05-02T14:01:11.700Z,35.43
2019-05-02T14:03:39.208Z,30.05
2019-05-02T14:06:06.696Z,33.20
2019-05-02T14:08:49.244Z,32.05
2019-05-02T14:11:35.283Z,31.40
2019-05-02T14:14:03.141Z,26.40
2019-05-02T14:16:32.074Z,31.15
2019-05-02T14:18:59.969Z,29.90
2019-05-02T14:21:27.449Z,29.35
2019-05-02T14:23:54.866Z,31.35
2019-05-02T14:26:30.383Z,29.30
2019-05-02T14:28:53.258Z,28.23
2019-05-02T14:31:21.665Z,28.67
2019-05-02T14:34:08.745Z,22.87
2019-05-02T14:36:36.563Z,26.48
2019-05-02T14:39:06.366Z,31.50
2019-05-02T14:41:40.476Z,25.50
2019-05-02T14:44:03.411Z,28.07
2019-05-02T14:46:35.540Z,26.05
2019-05-02T14:49:02.550Z,25.50
2019-05-02T14:51:29.814Z,27.10
2019-05-02T14:54:03.740Z,24.80
2019-05-02T14:56:47.931Z,28.17
2019-05-02T14:59:19.826Z,24.67
2019-05-02T15:01:49.868Z,23.83
2019-05-02T15:04:17.311Z,24.70
2019-05-02T15:06:47.483Z,24.35
2019-05-02T15:09:16.675Z,26.00
2019-05-02T15:11:58.853Z,24.43
2019-05-02T15:14:27.814Z,22.98
2019-05-02T15:16:58.338Z,28.27
2019-05-02T15:19:24.591Z,24.02
2019-05-02T15:21:55.860Z,23.32
2019-05-02T15:24:23.032Z,29.55
2019-05-02T15:26:52.375Z,20.45
2019-05-02T15:29:24.471Z,24.70
2019-05-02T15:31:57.873Z,26.55
2019-05-02T15:34:30.482Z,23.70
2019-05-02T15:36:57.966Z,25.27
2019-05-02T15:41:54.673Z,20.60
2019-05-02T15:44:23.360Z,18.15
2019-05-02T15:46:52.460Z,23.65
2019-05-02T15:49:22.120Z,24.72
2019-05-02T15:51:51.944Z,23.40
2019-05-02T15:54:20.914Z,25.48
2019-05-02T15:57:00.062Z,17.25
2019-05-02T15:59:32.575Z,23.12
2019-05-02T16:02:03.043Z,20.43
2019-05-02T16:04:34.359Z,27.48
2019-05-02T16:07:06.947Z,23.12
2019-05-02T16:09:32.968Z,20.97
2019-05-02T16:12:00.514Z,21.82
2019-05-02T16:14:34.093Z,21.50
2019-05-02T16:16:57.543Z,21.27
2019-05-02T16:19:29.309Z,24.23
2019-05-02T16:22:08.194Z,25.43
2019-05-02T16:24:35.683Z,22.07
2019-05-02T16:27:03.521Z,29.57
2019-05-02T16:29:31.847Z,20.80
2019-05-02T16:32:19.321Z,27.10
2019-05-02T16:34:55.162Z,28.05
2019-05-02T16:37:22.918Z,22.10
2019-05-02T16:39:51.115Z,25.48
2019-05-02T16:42:19.076Z,19.95
2019-05-02T16:44:46.903Z,22.90
2019-05-02T16:47:14.415Z,15.10
2019-05-02T16:49:42.006Z,18.40
2019-05-02T16:52:09.791Z,22.55
2019-05-02T16:54:41.755Z,23.42
2019-05-02T16:57:06.607Z,21.70
2019-05-02T16:59:34.447Z,17.60
2019-05-02T17:02:07.777Z,19.77
2019-05-02T17:04:31.896Z,25.62
2019-05-02T17:07:05.732Z,27.02
2019-05-02T17:09:38.884Z,21.95
2019-05-02T17:12:11.233Z,25.88
2019-05-02T17:14:35.923Z,25.05
2019-05-02T17:17:03.404Z,26.17
2019-05-02T17:19:34.785Z,25.27
2019-05-02T17:22:00.179Z,27.50
2019-05-02T17:24:27.610Z,25.52
2019-05-02T17:26:55.140Z,31.12
2019-05-02T17:29:22.916Z,22.65
2019-05-02T17:31:55.413Z,26.68
2019-05-02T17:34:24.469Z,29.25
2019-05-02T17:36:49.340Z,27.52
2019-05-02T17:39:18.796Z,27.60
2019-05-02T17:41:46.365Z,32.53
2019-05-02T17:44:18.382Z,23.38
2019-05-02T17:46:43.822Z,28.10
2019-05-02T17:49:11.893Z,30.85
2019-05-02T17:52:05.785Z,27.25
2019-05-02T17:54:31.692Z,26.68
2019-05-02T17:56:59.291Z,32.23
2019-05-02T17:59:28.335Z,28.73
2019-05-02T18:01:56.616Z,28.80
2019-05-02T18:04:24.366Z,28.50
2019-05-02T18:06:55.005Z,24.80
2019-05-02T18:09:21.687Z,24.77
2019-05-02T18:11:51.776Z,30.15
2019-05-02T18:14:21.481Z,31.10
2019-05-02T18:16:51.831Z,27.80
2019-05-02T18:19:21.867Z,26.77
2019-05-02T18:21:47.227Z,29.23
2019-05-02T18:24:14.704Z,29.05
2019-05-02T18:26:42.205Z,26.62
2019-05-02T18:29:12.284Z,27.60
2019-05-02T18:31:47.150Z,31.12
2019-05-02T18:34:12.558Z,24.43
2019-05-02T18:36:38.709Z,28.92
2019-05-02T18:39:07.227Z,26.50
2019-05-02T18:41:37.359Z,25.45
2019-05-02T18:44:04.065Z,28.20
2019-05-02T18:46:31.573Z,33.23
2019-05-02T18:48:59.039Z,29.80
2019-05-02T18:51:26.563Z,28.50
2019-05-02T18:53:58.012Z,29.82
2019-05-02T18:56:24.237Z,33.92
2019-05-02T18:58:53.492Z,27.98
2019-05-02T19:01:21.152Z,30.70
2019-05-02T19:03:52.514Z,25.15
2019-05-02T19:06:18.211Z,26.17
2019-05-02T19:08:49.869Z,33.23
2019-05-02T19:11:16.251Z,30.88
2019-05-02T19:13:44.477Z,31.60
2019-05-02T19:16:12.972Z,25.68
2019-05-02T19:18:42.553Z,36.53
2019-05-02T19:21:12.327Z,26.12
2019-05-02T19:23:39.505Z,39.20
2019-05-02T19:26:10.174Z,30.25
2019-05-02T19:28:59.726Z,32.65
2019-05-02T19:31:49.715Z,31.00
2019-05-02T19:34:22.896Z,28.95
2019-05-02T19:36:46.477Z,30.17
2019-05-02T19:39:14.986Z,28.40
2019-05-02T19:41:43.979Z,29.30
2019-05-02T19:44:11.647Z,32.35
2019-05-02T19:46:39.158Z,29.75
2019-05-02T19:49:06.866Z,34.63
2019-05-02T19:51:36.198Z,36.90
2019-05-02T19:54:06.842Z,34.73
2019-05-02T19:56:43.268Z,35.23
2019-05-02T19:59:02.790Z,39.73
2019-05-02T20:01:30.510Z,32.75
2019-05-02T20:04:02.386Z,37.45
2019-05-02T20:06:27.517Z,34.43
2019-05-02T20:08:59.239Z,35.17
2019-05-02T20:11:28.067Z,33.30
2019-05-02T20:13:53.840Z,33.42
2019-05-02T20:16:44.195Z,37.25
2019-05-02T20:19:08.768Z,32.35
2019-05-02T20:21:57.083Z,36.30
2019-05-02T20:24:49.193Z,36.75
2019-05-02T20:27:14.277Z,36.08
2019-05-02T20:29:42.652Z,35.85
2019-05-02T20:32:10.181Z,35.35
2019-05-02T20:34:37.744Z,44.42
2019-05-02T20:37:05.192Z,36.40
2019-05-02T20:39:32.618Z,38.60
2019-05-02T20:42:00.108Z,42.35
2019-05-02T20:44:27.536Z,37.13
2019-05-02T20:46:54.980Z,38.88
2019-05-02T20:49:22.460Z,34.08
2019-05-02T20:51:51.742Z,28.62
2019-05-02T20:54:19.547Z,30.12
2019-05-02T20:56:47.572Z,27.85
2019-05-02T20:59:15.233Z,27.55
2019-05-02T21:01:43.011Z,31.25
2019-05-02T21:04:12.063Z,31.55
2019-05-02T21:07:03.673Z,31.25
2019-05-02T21:09:53.606Z,31.07
2019-05-02T21:12:21.926Z,34.40
2019-05-02T21:14:49.365Z,32.53
2019-05-02T21:17:16.858Z,33.40
2019-05-02T21:19:44.268Z,30.45
2019-05-02T21:22:16.502Z,35.90
2019-05-02T21:24:44.037Z,35.58
2019-05-02T21:27:11.905Z,34.13
2019-05-02T21:29:39.374Z,34.18
2019-05-02T21:32:06.845Z,36.20
2019-05-02T21:34:34.350Z,29.75
2019-05-02T21:37:02.537Z,36.30
2019-05-02T21:39:31.775Z,32.78
2019-05-02T21:41:59.204Z,31.25
2019-05-02T21:44:26.692Z,37.35
2019-05-02T21:46:54.123Z,33.00
2019-05-02T21:49:42.994Z,32.17
2019-05-02T21:52:35.949Z,32.50
2019-05-02T21:55:14.084Z,29.65
2019-05-02T21:57:41.579Z,28.98
2019-05-02T22:00:13.478Z,27.02
2019-05-02T22:02:40.935Z,30.17
2019-05-02T22:05:08.378Z,26.48
2019-05-02T22:07:36.180Z,28.75
2019-05-02T22:10:05.611Z,28.60
2019-05-02T22:12:33.074Z,28.75
2019-05-02T22:15:02.349Z,27.87
2019-05-02T22:17:29.761Z,34.08
2019-05-02T22:19:57.222Z,34.70
2019-05-02T22:22:24.688Z,29.52
2019-05-02T22:24:52.806Z,31.50
2019-05-02T22:27:21.773Z,30.45
2019-05-02T22:29:49.298Z,30.60
2019-05-02T22:32:16.780Z,34.85
2019-05-02T22:34:45.297Z,36.88
2019-05-02T22:37:14.609Z,37.38
2019-05-02T22:39:47.961Z,34.23
2019-05-02T22:42:16.077Z,35.88
2019-05-02T22:44:43.533Z,35.98
2019-05-02T22:47:11.845Z,34.88
2019-05-02T22:49:42.289Z,33.65
2019-05-02T22:52:09.588Z,34.95
2019-05-02T22:54:37.083Z,37.95
2019-05-02T22:57:04.628Z,33.40
2019-05-02T22:59:32.319Z,36.08
2019-05-02T23:01:59.820Z,34.60
2019-05-02T23:04:29.077Z,35.40
2019-05-02T23:06:56.559Z,39.00
2019-05-02T23:09:24.014Z,41.48
2019-05-02T23:11:52.003Z,39.18
2019-05-02T23:14:21.866Z,31.50
2019-05-02T23:16:48.776Z,33.65
2019-05-02T23:19:16.710Z,33.95
2019-05-02T23:21:44.524Z,40.05
2019-05-02T23:24:23.758Z,38.08
2019-05-02T23:26:57.567Z,41.95
2019-05-02T23:29:25.084Z,39.33
2019-05-02T23:31:52.630Z,33.83
2019-05-02T23:34:23.299Z,36.53
2019-05-02T23:36:49.448Z,38.08
2019-05-02T23:39:16.964Z,38.95
2019-05-02T23:41:44.608Z,39.92
2019-05-02T23:44:12.436Z,41.40
2019-05-02T23:46:42.204Z,46.35
2019-05-02T23:49:09.538Z,45.03
2019-05-02T23:51:36.980Z,42.83
2019-05-02T23:54:04.466Z,45.40
2019-05-02T23:56:32.537Z,51.25
2019-05-02T23:59:00.344Z,52.03
